sensor_id;sensor_type;location;lat;lon;timestamp;P1;durP1;ratioP1;P2;durP2;ratioP2
38224;SDS011;24025;48.138;11.428;2023-04-27T00:00:58;7.13;;;3.10;;
38224;SDS011;24025;48.138;11.428;2023-04-27T00:03:29;7.97;;;2.97;;
38224;SDS011;24025;48.138;11.428;2023-04-27T00:06:01;5.20;;;2.88;;
38224;SDS011;24025;48.138;11.428;2023-04-27T00:08:34;5.95;;;2.92;;
38224;SDS011;24025;48.138;11.428;2023-04-27T00:11:05;5.65;;;3.42;;
38224;SDS011;24025;48.138;11.428;2023-04-27T00:13:38;5.75;;;2.92;;
38224;SDS011;24025;48.138;11.428;2023-04-27T00:16:09;7.00;;;3.30;;
38224;SDS011;24025;48.138;11.428;2023-04-27T00:18:41;4.20;;;2.55;;
38224;SDS011;24025;48.138;11.428;2023-04-27T00:21:13;3.55;;;2.58;;
38224;SDS011;24025;48.138;11.428;2023-04-27T00:23:44;8.93;;;3.10;;
38224;SDS011;24025;48.138;11.428;2023-04-27T00:26:16;5.25;;;2.85;;
38224;SDS011;24025;48.138;11.428;2023-04-27T00:28:47;7.95;;;2.83;;
38224;SDS011;24025;48.138;11.428;2023-04-27T00:31:19;4.40;;;2.80;;
38224;SDS011;24025;48.138;11.428;2023-04-27T00:33:51;4.95;;;2.20;;
38224;SDS011;24025;48.138;11.428;2023-04-27T00:36:22;8.77;;;2.63;;
38224;SDS011;24025;48.138;11.428;2023-04-27T00:38:54;4.40;;;2.50;;
38224;SDS011;24025;48.138;11.428;2023-04-27T00:41:25;5.17;;;3.00;;
38224;SDS011;24025;48.138;11.428;2023-04-27T00:43:57;6.00;;;2.70;;
38224;SDS011;24025;48.138;11.428;2023-04-27T00:46:28;4.10;;;2.60;;
38224;SDS011;24025;48.138;11.428;2023-04-27T00:49:01;5.10;;;2.63;;
38224;SDS011;24025;48.138;11.428;2023-04-27T00:51:33;4.00;;;2.83;;
38224;SDS011;24025;48.138;11.428;2023-04-27T00:54:04;3.70;;;2.20;;
38224;SDS011;24025;48.138;11.428;2023-04-27T00:56:36;5.70;;;2.13;;
38224;SDS011;24025;48.138;11.428;2023-04-27T00:59:08;7.60;;;2.95;;
38224;SDS011;24025;48.138;11.428;2023-04-27T01:01:39;6.93;;;2.70;;
38224;SDS011;24025;48.138;11.428;2023-04-27T01:04:11;3.10;;;2.67;;
38224;SDS011;24025;48.138;11.428;2023-04-27T01:06:43;6.30;;;2.60;;
38224;SDS011;24025;48.138;11.428;2023-04-27T01:09:14;7.78;;;2.45;;
38224;SDS011;24025;48.138;11.428;2023-04-27T01:11:49;2.70;;;2.17;;
38224;SDS011;24025;48.138;11.428;2023-04-27T01:14:21;6.82;;;2.70;;
38224;SDS011;24025;48.138;11.428;2023-04-27T01:16:52;6.13;;;2.27;;
38224;SDS011;24025;48.138;11.428;2023-04-27T01:19:24;5.32;;;2.90;;
38224;SDS011;24025;48.138;11.428;2023-04-27T01:21:55;9.20;;;2.80;;
38224;SDS011;24025;48.138;11.428;2023-04-27T01:24:27;4.73;;;2.30;;
38224;SDS011;24025;48.138;11.428;2023-04-27T01:26:58;4.90;;;2.33;;
38224;SDS011;24025;48.138;11.428;2023-04-27T01:29:30;5.97;;;2.40;;
38224;SDS011;24025;48.138;11.428;2023-04-27T01:32:02;4.35;;;2.42;;
38224;SDS011;24025;48.138;11.428;2023-04-27T01:34:33;3.40;;;2.42;;
38224;SDS011;24025;48.138;11.428;2023-04-27T01:37:05;7.18;;;2.53;;
38224;SDS011;24025;48.138;11.428;2023-04-27T01:39:37;3.35;;;2.53;;
38224;SDS011;24025;48.138;11.428;2023-04-27T01:42:08;8.90;;;2.42;;
38224;SDS011;24025;48.138;11.428;2023-04-27T01:44:40;8.90;;;3.00;;
38224;SDS011;24025;48.138;11.428;2023-04-27T01:47:11;3.90;;;2.77;;
38224;SDS011;24025;48.138;11.428;2023-04-27T01:49:46;4.93;;;2.42;;
38224;SDS011;24025;48.138;11.428;2023-04-27T01:52:18;5.93;;;2.72;;
38224;SDS011;24025;48.138;11.428;2023-04-27T01:54:49;5.83;;;2.57;;
38224;SDS011;24025;48.138;11.428;2023-04-27T01:57:21;3.80;;;1.97;;
38224;SDS011;24025;48.138;11.428;2023-04-27T01:59:52;5.53;;;2.90;;
38224;SDS011;24025;48.138;11.428;2023-04-27T02:02:24;4.23;;;2.70;;
38224;SDS011;24025;48.138;11.428;2023-04-27T02:04:56;5.10;;;2.38;;
38224;SDS011;24025;48.138;11.428;2023-04-27T02:07:27;4.67;;;2.50;;
38224;SDS011;24025;48.138;11.428;2023-04-27T02:09:59;5.73;;;3.33;;
38224;SDS011;24025;48.138;11.428;2023-04-27T02:12:30;8.00;;;3.30;;
38224;SDS011;24025;48.138;11.428;2023-04-27T02:15:02;5.40;;;2.60;;
38224;SDS011;24025;48.138;11.428;2023-04-27T02:17:33;4.50;;;2.90;;
38224;SDS011;24025;48.138;11.428;2023-04-27T02:20:05;2.80;;;2.50;;
38224;SDS011;24025;48.138;11.428;2023-04-27T02:22:41;5.78;;;2.42;;
38224;SDS011;24025;48.138;11.428;2023-04-27T02:25:15;4.80;;;2.45;;
38224;SDS011;24025;48.138;11.428;2023-04-27T02:27:47;3.72;;;2.10;;
38224;SDS011;24025;48.138;11.428;2023-04-27T02:30:19;3.28;;;2.10;;
38224;SDS011;24025;48.138;11.428;2023-04-27T02:32:51;6.57;;;3.13;;
38224;SDS011;24025;48.138;11.428;2023-04-27T02:35:23;5.07;;;2.63;;
38224;SDS011;24025;48.138;11.428;2023-04-27T02:37:55;5.20;;;2.30;;
38224;SDS011;24025;48.138;11.428;2023-04-27T02:40:26;3.83;;;2.42;;
38224;SDS011;24025;48.138;11.428;2023-04-27T02:42:58;2.60;;;2.38;;
38224;SDS011;24025;48.138;11.428;2023-04-27T02:45:30;7.47;;;2.75;;
38224;SDS011;24025;48.138;11.428;2023-04-27T02:48:01;3.75;;;2.55;;
38224;SDS011;24025;48.138;11.428;2023-04-27T02:50:33;4.07;;;2.70;;
38224;SDS011;24025;48.138;11.428;2023-04-27T02:53:11;6.35;;;2.30;;
38224;SDS011;24025;48.138;11.428;2023-04-27T02:55:45;4.63;;;2.53;;
38224;SDS011;24025;48.138;11.428;2023-04-27T02:58:18;5.22;;;2.05;;
38224;SDS011;24025;48.138;11.428;2023-04-27T03:00:55;4.77;;;2.50;;
38224;SDS011;24025;48.138;11.428;2023-04-27T03:03:28;4.32;;;2.42;;
38224;SDS011;24025;48.138;11.428;2023-04-27T03:05:59;3.78;;;2.10;;
38224;SDS011;24025;48.138;11.428;2023-04-27T03:08:31;5.00;;;2.40;;
38224;SDS011;24025;48.138;11.428;2023-04-27T03:11:03;4.95;;;2.47;;
38224;SDS011;24025;48.138;11.428;2023-04-27T03:13:34;7.18;;;2.42;;
38224;SDS011;24025;48.138;11.428;2023-04-27T03:16:12;3.92;;;2.88;;
38224;SDS011;24025;48.138;11.428;2023-04-27T03:18:43;8.90;;;2.80;;
38224;SDS011;24025;48.138;11.428;2023-04-27T03:21:15;12.45;;;2.45;;
38224;SDS011;24025;48.138;11.428;2023-04-27T03:23:47;6.60;;;3.10;;
38224;SDS011;24025;48.138;11.428;2023-04-27T03:26:18;10.23;;;2.90;;
38224;SDS011;24025;48.138;11.428;2023-04-27T03:28:50;2.50;;;2.13;;
38224;SDS011;24025;48.138;11.428;2023-04-27T03:31:22;10.47;;;2.83;;
38224;SDS011;24025;48.138;11.428;2023-04-27T03:33:53;7.83;;;2.70;;
38224;SDS011;24025;48.138;11.428;2023-04-27T03:36:25;7.43;;;2.60;;
38224;SDS011;24025;48.138;11.428;2023-04-27T03:38:57;7.10;;;2.40;;
38224;SDS011;24025;48.138;11.428;2023-04-27T03:41:28;9.82;;;2.72;;
38224;SDS011;24025;48.138;11.428;2023-04-27T03:44:00;5.07;;;2.43;;
38224;SDS011;24025;48.138;11.428;2023-04-27T03:46:31;4.25;;;2.38;;
38224;SDS011;24025;48.138;11.428;2023-04-27T03:49:03;5.75;;;2.90;;
38224;SDS011;24025;48.138;11.428;2023-04-27T03:51:35;6.47;;;3.25;;
38224;SDS011;24025;48.138;11.428;2023-04-27T03:54:08;3.72;;;2.05;;
38224;SDS011;24025;48.138;11.428;2023-04-27T03:56:40;3.55;;;2.50;;
38224;SDS011;24025;48.138;11.428;2023-04-27T03:59:11;5.53;;;2.57;;
38224;SDS011;24025;48.138;11.428;2023-04-27T04:01:43;4.85;;;2.03;;
38224;SDS011;24025;48.138;11.428;2023-04-27T04:04:15;7.32;;;2.85;;
38224;SDS011;24025;48.138;11.428;2023-04-27T04:06:47;5.38;;;2.45;;
38224;SDS011;24025;48.138;11.428;2023-04-27T04:09:18;4.17;;;2.20;;
38224;SDS011;24025;48.138;11.428;2023-04-27T04:11:52;5.47;;;2.90;;
38224;SDS011;24025;48.138;11.428;2023-04-27T04:14:24;6.03;;;2.20;;
38224;SDS011;24025;48.138;11.428;2023-04-27T04:16:55;6.50;;;2.67;;
38224;SDS011;24025;48.138;11.428;2023-04-27T04:19:27;5.43;;;2.80;;
38224;SDS011;24025;48.138;11.428;2023-04-27T04:21:58;6.53;;;2.70;;
38224;SDS011;24025;48.138;11.428;2023-04-27T04:24:30;9.10;;;2.43;;
38224;SDS011;24025;48.138;11.428;2023-04-27T04:27:01;3.70;;;2.28;;
38224;SDS011;24025;48.138;11.428;2023-04-27T04:29:33;4.97;;;2.47;;
38224;SDS011;24025;48.138;11.428;2023-04-27T04:32:05;3.80;;;2.35;;
38224;SDS011;24025;48.138;11.428;2023-04-27T04:34:37;9.88;;;2.40;;
38224;SDS011;24025;48.138;11.428;2023-04-27T04:37:10;3.90;;;2.27;;
38224;SDS011;24025;48.138;11.428;2023-04-27T04:39:41;5.13;;;2.85;;
38224;SDS011;24025;48.138;11.428;2023-04-27T04:42:13;4.13;;;2.50;;
38224;SDS011;24025;48.138;11.428;2023-04-27T04:44:44;13.13;;;2.93;;
38224;SDS011;24025;48.138;11.428;2023-04-27T04:47:16;2.97;;;2.10;;
38224;SDS011;24025;48.138;11.428;2023-04-27T04:49:48;6.77;;;2.90;;
38224;SDS011;24025;48.138;11.428;2023-04-27T04:52:19;3.40;;;2.25;;
38224;SDS011;24025;48.138;11.428;2023-04-27T04:54:51;5.60;;;2.55;;
38224;SDS011;24025;48.138;11.428;2023-04-27T04:57:23;5.13;;;2.67;;
38224;SDS011;24025;48.138;11.428;2023-04-27T04:59:55;13.40;;;2.80;;
38224;SDS011;24025;48.138;11.428;2023-04-27T05:02:26;3.83;;;2.70;;
38224;SDS011;24025;48.138;11.428;2023-04-27T05:04:58;4.55;;;2.65;;
38224;SDS011;24025;48.138;11.428;2023-04-27T05:07:30;7.63;;;2.88;;
38224;SDS011;24025;48.138;11.428;2023-04-27T05:10:03;5.28;;;2.38;;
38224;SDS011;24025;48.138;11.428;2023-04-27T05:15:07;4.38;;;2.50;;
38224;SDS011;24025;48.138;11.428;2023-04-27T05:17:39;6.72;;;3.25;;
38224;SDS011;24025;48.138;11.428;2023-04-27T05:20:10;5.53;;;2.72;;
38224;SDS011;24025;48.138;11.428;2023-04-27T05:22:42;5.45;;;2.72;;
38224;SDS011;24025;48.138;11.428;2023-04-27T05:25:13;5.77;;;3.37;;
38224;SDS011;24025;48.138;11.428;2023-04-27T05:27:45;7.30;;;3.22;;
38224;SDS011;24025;48.138;11.428;2023-04-27T05:30:17;6.50;;;3.13;;
38224;SDS011;24025;48.138;11.428;2023-04-27T05:32:48;5.57;;;3.10;;
38224;SDS011;24025;48.138;11.428;2023-04-27T05:35:20;6.00;;;3.63;;
38224;SDS011;24025;48.138;11.428;2023-04-27T05:37:51;5.50;;;3.63;;
38224;SDS011;24025;48.138;11.428;2023-04-27T05:40:23;8.38;;;3.53;;
38224;SDS011;24025;48.138;11.428;2023-04-27T05:42:55;8.43;;;4.20;;
38224;SDS011;24025;48.138;11.428;2023-04-27T05:45:27;8.68;;;4.10;;
38224;SDS011;24025;48.138;11.428;2023-04-27T05:47:58;6.05;;;3.80;;
38224;SDS011;24025;48.138;11.428;2023-04-27T05:50:30;10.93;;;4.15;;
38224;SDS011;24025;48.138;11.428;2023-04-27T05:53:02;7.32;;;3.47;;
38224;SDS011;24025;48.138;11.428;2023-04-27T05:55:35;5.80;;;4.00;;
38224;SDS011;24025;48.138;11.428;2023-04-27T05:58:08;6.32;;;3.33;;
38224;SDS011;24025;48.138;11.428;2023-04-27T06:00:39;8.97;;;3.03;;
38224;SDS011;24025;48.138;11.428;2023-04-27T06:03:11;7.75;;;3.67;;
38224;SDS011;24025;48.138;11.428;2023-04-27T06:05:43;8.40;;;3.35;;
38224;SDS011;24025;48.138;11.428;2023-04-27T06:08:15;9.05;;;3.30;;
38224;SDS011;24025;48.138;11.428;2023-04-27T06:10:46;7.07;;;3.67;;
38224;SDS011;24025;48.138;11.428;2023-04-27T06:13:19;12.27;;;4.82;;
38224;SDS011;24025;48.138;11.428;2023-04-27T06:15:51;9.38;;;3.55;;
38224;SDS011;24025;48.138;11.428;2023-04-27T06:18:22;18.35;;;4.25;;
38224;SDS011;24025;48.138;11.428;2023-04-27T06:20:57;12.93;;;3.25;;
38224;SDS011;24025;48.138;11.428;2023-04-27T06:23:32;9.15;;;3.90;;
38224;SDS011;24025;48.138;11.428;2023-04-27T06:26:04;10.18;;;3.30;;
38224;SDS011;24025;48.138;11.428;2023-04-27T06:28:35;8.40;;;3.20;;
38224;SDS011;24025;48.138;11.428;2023-04-27T06:31:07;6.43;;;3.40;;
38224;SDS011;24025;48.138;11.428;2023-04-27T06:33:38;10.00;;;3.22;;
38224;SDS011;24025;48.138;11.428;2023-04-27T06:36:10;6.47;;;3.30;;
38224;SDS011;24025;48.138;11.428;2023-04-27T06:38:42;12.07;;;3.53;;
38224;SDS011;24025;48.138;11.428;2023-04-27T06:41:13;10.65;;;4.10;;
38224;SDS011;24025;48.138;11.428;2023-04-27T06:43:45;5.30;;;2.50;;
38224;SDS011;24025;48.138;11.428;2023-04-27T06:46:16;5.50;;;3.15;;
38224;SDS011;24025;48.138;11.428;2023-04-27T06:48:48;6.70;;;2.63;;
38224;SDS011;24025;48.138;11.428;2023-04-27T06:51:20;8.05;;;3.03;;
38224;SDS011;24025;48.138;11.428;2023-04-27T06:53:51;5.68;;;3.03;;
38224;SDS011;24025;48.138;11.428;2023-04-27T06:56:24;8.40;;;3.05;;
38224;SDS011;24025;48.138;11.428;2023-04-27T06:58:56;9.63;;;5.00;;
38224;SDS011;24025;48.138;11.428;2023-04-27T07:01:27;5.50;;;3.00;;
38224;SDS011;24025;48.138;11.428;2023-04-27T07:03:59;8.20;;;2.88;;
38224;SDS011;24025;48.138;11.428;2023-04-27T07:06:31;11.52;;;3.10;;
38224;SDS011;24025;48.138;11.428;2023-04-27T07:09:03;10.27;;;3.05;;
38224;SDS011;24025;48.138;11.428;2023-04-27T07:11:50;7.78;;;3.22;;
38224;SDS011;24025;48.138;11.428;2023-04-27T07:14:22;10.93;;;2.43;;
38224;SDS011;24025;48.138;11.428;2023-04-27T07:16:53;8.27;;;4.27;;
38224;SDS011;24025;48.138;11.428;2023-04-27T07:19:25;10.30;;;3.20;;
38224;SDS011;24025;48.138;11.428;2023-04-27T07:21:56;5.07;;;3.22;;
38224;SDS011;24025;48.138;11.428;2023-04-27T07:24:28;8.13;;;2.83;;
38224;SDS011;24025;48.138;11.428;2023-04-27T07:26:59;10.90;;;3.42;;
38224;SDS011;24025;48.138;11.428;2023-04-27T07:29:32;8.38;;;2.95;;
38224;SDS011;24025;48.138;11.428;2023-04-27T07:32:05;10.88;;;3.40;;
38224;SDS011;24025;48.138;11.428;2023-04-27T07:34:37;7.20;;;2.72;;
38224;SDS011;24025;48.138;11.428;2023-04-27T07:37:23;6.13;;;2.42;;
38224;SDS011;24025;48.138;11.428;2023-04-27T07:39:55;6.80;;;2.80;;
38224;SDS011;24025;48.138;11.428;2023-04-27T07:42:26;8.65;;;3.00;;
38224;SDS011;24025;48.138;11.428;2023-04-27T07:44:58;5.78;;;2.65;;
38224;SDS011;24025;48.138;11.428;2023-04-27T07:47:29;4.40;;;2.72;;
38224;SDS011;24025;48.138;11.428;2023-04-27T07:50:02;5.53;;;2.70;;
38224;SDS011;24025;48.138;11.428;2023-04-27T07:52:35;4.95;;;2.80;;
38224;SDS011;24025;48.138;11.428;2023-04-27T07:55:07;6.70;;;3.15;;
38224;SDS011;24025;48.138;11.428;2023-04-27T07:57:47;4.63;;;2.80;;
38224;SDS011;24025;48.138;11.428;2023-04-27T08:00:19;7.43;;;3.08;;
38224;SDS011;24025;48.138;11.428;2023-04-27T08:02:51;10.07;;;3.22;;
38224;SDS011;24025;48.138;11.428;2023-04-27T08:05:26;3.63;;;2.42;;
38224;SDS011;24025;48.138;11.428;2023-04-27T08:07:59;9.55;;;3.50;;
38224;SDS011;24025;48.138;11.428;2023-04-27T08:10:30;7.82;;;3.05;;
38224;SDS011;24025;48.138;11.428;2023-04-27T08:13:02;8.07;;;3.58;;
38224;SDS011;24025;48.138;11.428;2023-04-27T08:15:34;11.50;;;2.97;;
38224;SDS011;24025;48.138;11.428;2023-04-27T08:18:06;5.03;;;2.70;;
38224;SDS011;24025;48.138;11.428;2023-04-27T08:20:38;3.75;;;2.53;;
38224;SDS011;24025;48.138;11.428;2023-04-27T08:23:10;4.70;;;2.72;;
38224;SDS011;24025;48.138;11.428;2023-04-27T08:25:41;7.85;;;2.80;;
38224;SDS011;24025;48.138;11.428;2023-04-27T08:28:13;6.60;;;3.05;;
38224;SDS011;24025;48.138;11.428;2023-04-27T08:30:45;6.13;;;2.78;;
38224;SDS011;24025;48.138;11.428;2023-04-27T08:33:17;4.72;;;2.85;;
38224;SDS011;24025;48.138;11.428;2023-04-27T08:35:48;3.72;;;2.88;;
38224;SDS011;24025;48.138;11.428;2023-04-27T08:38:20;7.60;;;3.97;;
38224;SDS011;24025;48.138;11.428;2023-04-27T08:40:55;7.05;;;2.63;;
38224;SDS011;24025;48.138;11.428;2023-04-27T08:43:35;11.85;;;3.60;;
38224;SDS011;24025;48.138;11.428;2023-04-27T08:46:06;6.45;;;3.25;;
38224;SDS011;24025;48.138;11.428;2023-04-27T08:48:38;4.07;;;3.08;;
38224;SDS011;24025;48.138;11.428;2023-04-27T08:51:09;8.68;;;3.15;;
38224;SDS011;24025;48.138;11.428;2023-04-27T08:53:47;6.70;;;3.65;;
38224;SDS011;24025;48.138;11.428;2023-04-27T08:56:23;7.25;;;3.42;;
38224;SDS011;24025;48.138;11.428;2023-04-27T08:58:56;5.53;;;3.30;;
38224;SDS011;24025;48.138;11.428;2023-04-27T09:01:28;7.72;;;3.63;;
38224;SDS011;24025;48.138;11.428;2023-04-27T09:04:00;4.20;;;3.25;;
38224;SDS011;24025;48.138;11.428;2023-04-27T09:06:33;5.28;;;3.33;;
38224;SDS011;24025;48.138;11.428;2023-04-27T09:09:06;8.23;;;3.30;;
38224;SDS011;24025;48.138;11.428;2023-04-27T09:11:38;7.65;;;3.20;;
38224;SDS011;24025;48.138;11.428;2023-04-27T09:14:19;5.68;;;3.75;;
38224;SDS011;24025;48.138;11.428;2023-04-27T09:16:55;6.75;;;3.45;;
38224;SDS011;24025;48.138;11.428;2023-04-27T09:19:29;5.15;;;3.33;;
38224;SDS011;24025;48.138;11.428;2023-04-27T09:22:02;6.97;;;3.50;;
38224;SDS011;24025;48.138;11.428;2023-04-27T09:24:38;6.65;;;3.80;;
38224;SDS011;24025;48.138;11.428;2023-04-27T09:27:20;7.85;;;3.45;;
38224;SDS011;24025;48.138;11.428;2023-04-27T09:29:53;8.68;;;3.33;;
38224;SDS011;24025;48.138;11.428;2023-04-27T09:32:24;10.38;;;3.40;;
38224;SDS011;24025;48.138;11.428;2023-04-27T09:34:56;14.50;;;3.47;;
38224;SDS011;24025;48.138;11.428;2023-04-27T09:37:27;4.60;;;3.13;;
38224;SDS011;24025;48.138;11.428;2023-04-27T09:40:01;6.97;;;2.92;;
38224;SDS011;24025;48.138;11.428;2023-04-27T09:42:34;5.47;;;3.05;;
38224;SDS011;24025;48.138;11.428;2023-04-27T09:45:06;6.22;;;2.90;;
38224;SDS011;24025;48.138;11.428;2023-04-27T09:47:39;4.85;;;1.85;;
38224;SDS011;24025;48.138;11.428;2023-04-27T09:50:11;5.00;;;2.30;;
38224;SDS011;24025;48.138;11.428;2023-04-27T09:52:44;8.80;;;2.70;;
38224;SDS011;24025;48.138;11.428;2023-04-27T09:55:18;5.68;;;2.50;;
38224;SDS011;24025;48.138;11.428;2023-04-27T09:57:57;7.55;;;2.17;;
38224;SDS011;24025;48.138;11.428;2023-04-27T10:03:30;9.95;;;3.17;;
38224;SDS011;24025;48.138;11.428;2023-04-27T10:09:22;7.72;;;2.78;;
38224;SDS011;24025;48.138;11.428;2023-04-27T10:14:27;3.53;;;2.42;;
38224;SDS011;24025;48.138;11.428;2023-04-27T10:16:59;3.80;;;2.17;;
38224;SDS011;24025;48.138;11.428;2023-04-27T10:19:31;3.10;;;2.08;;
38224;SDS011;24025;48.138;11.428;2023-04-27T10:22:02;5.55;;;2.55;;
38224;SDS011;24025;48.138;11.428;2023-04-27T10:24:35;7.20;;;2.38;;
38224;SDS011;24025;48.138;11.428;2023-04-27T10:27:17;5.38;;;2.35;;
38224;SDS011;24025;48.138;11.428;2023-04-27T10:29:50;5.25;;;2.17;;
38224;SDS011;24025;48.138;11.428;2023-04-27T10:32:25;6.68;;;2.72;;
38224;SDS011;24025;48.138;11.428;2023-04-27T10:35:03;5.55;;;2.42;;
38224;SDS011;24025;48.138;11.428;2023-04-27T10:37:39;6.00;;;1.88;;
38224;SDS011;24025;48.138;11.428;2023-04-27T10:40:13;7.82;;;2.53;;
38224;SDS011;24025;48.138;11.428;2023-04-27T10:42:47;5.45;;;2.35;;
38224;SDS011;24025;48.138;11.428;2023-04-27T10:45:26;5.18;;;2.47;;
38224;SDS011;24025;48.138;11.428;2023-04-27T10:48:01;3.53;;;1.87;;
38224;SDS011;24025;48.138;11.428;2023-04-27T10:50:33;5.60;;;2.00;;
38224;SDS011;24025;48.138;11.428;2023-04-27T10:53:05;6.55;;;2.53;;
38224;SDS011;24025;48.138;11.428;2023-04-27T10:55:38;6.68;;;2.40;;
38224;SDS011;24025;48.138;11.428;2023-04-27T10:58:09;4.22;;;2.58;;
38224;SDS011;24025;48.138;11.428;2023-04-27T11:00:41;6.03;;;2.88;;
38224;SDS011;24025;48.138;11.428;2023-04-27T11:06:01;6.40;;;2.85;;
38224;SDS011;24025;48.138;11.428;2023-04-27T11:08:42;3.42;;;2.72;;
38224;SDS011;24025;48.138;11.428;2023-04-27T11:11:14;3.28;;;2.35;;
38224;SDS011;24025;48.138;11.428;2023-04-27T11:13:47;5.63;;;2.20;;
38224;SDS011;24025;48.138;11.428;2023-04-27T11:16:20;3.75;;;2.42;;
38224;SDS011;24025;48.138;11.428;2023-04-27T11:18:51;6.70;;;2.22;;
38224;SDS011;24025;48.138;11.428;2023-04-27T11:21:24;6.30;;;2.10;;
38224;SDS011;24025;48.138;11.428;2023-04-27T11:23:55;4.65;;;2.50;;
38224;SDS011;24025;48.138;11.428;2023-04-27T11:31:41;5.75;;;1.60;;
38224;SDS011;24025;48.138;11.428;2023-04-27T11:34:19;3.20;;;1.90;;
38224;SDS011;24025;48.138;11.428;2023-04-27T11:36:58;7.55;;;2.58;;
38224;SDS011;24025;48.138;11.428;2023-04-27T11:39:36;2.42;;;1.85;;
38224;SDS011;24025;48.138;11.428;2023-04-27T11:42:22;4.25;;;2.08;;
38224;SDS011;24025;48.138;11.428;2023-04-27T11:44:55;2.13;;;1.65;;
38224;SDS011;24025;48.138;11.428;2023-04-27T11:47:29;8.80;;;1.95;;
38224;SDS011;24025;48.138;11.428;2023-04-27T11:50:04;4.47;;;1.50;;
38224;SDS011;24025;48.138;11.428;2023-04-27T11:52:37;5.60;;;1.63;;
38224;SDS011;24025;48.138;11.428;2023-04-27T11:55:10;7.68;;;2.05;;
38224;SDS011;24025;48.138;11.428;2023-04-27T11:57:46;4.70;;;1.67;;
38224;SDS011;24025;48.138;11.428;2023-04-27T12:00:18;8.77;;;1.60;;
38224;SDS011;24025;48.138;11.428;2023-04-27T12:05:22;7.47;;;1.92;;
38224;SDS011;24025;48.138;11.428;2023-04-27T12:07:54;4.13;;;1.50;;
38224;SDS011;24025;48.138;11.428;2023-04-27T12:10:26;1.63;;;1.48;;
38224;SDS011;24025;48.138;11.428;2023-04-27T12:12:58;4.22;;;1.83;;
38224;SDS011;24025;48.138;11.428;2023-04-27T12:15:29;3.55;;;1.75;;
38224;SDS011;24025;48.138;11.428;2023-04-27T12:18:01;4.45;;;2.10;;
38224;SDS011;24025;48.138;11.428;2023-04-27T12:20:33;7.20;;;1.63;;
38224;SDS011;24025;48.138;11.428;2023-04-27T12:23:05;4.18;;;1.83;;
38224;SDS011;24025;48.138;11.428;2023-04-27T12:25:36;9.95;;;2.55;;
38224;SDS011;24025;48.138;11.428;2023-04-27T12:28:08;6.60;;;2.00;;
38224;SDS011;24025;48.138;11.428;2023-04-27T12:30:40;2.95;;;2.33;;
38224;SDS011;24025;48.138;11.428;2023-04-27T12:33:12;3.95;;;2.08;;
38224;SDS011;24025;48.138;11.428;2023-04-27T12:35:43;4.07;;;1.92;;
38224;SDS011;24025;48.138;11.428;2023-04-27T12:38:15;5.30;;;2.00;;
38224;SDS011;24025;48.138;11.428;2023-04-27T12:40:47;7.32;;;2.28;;
38224;SDS011;24025;48.138;11.428;2023-04-27T12:45:50;3.63;;;2.40;;
38224;SDS011;24025;48.138;11.428;2023-04-27T12:48:22;4.05;;;1.98;;
38224;SDS011;24025;48.138;11.428;2023-04-27T12:50:53;2.70;;;1.88;;
38224;SDS011;24025;48.138;11.428;2023-04-27T12:53:25;2.38;;;1.88;;
38224;SDS011;24025;48.138;11.428;2023-04-27T12:56:00;4.55;;;1.77;;
38224;SDS011;24025;48.138;11.428;2023-04-27T12:58:32;3.58;;;1.60;;
38224;SDS011;24025;48.138;11.428;2023-04-27T13:01:04;8.43;;;1.77;;
38224;SDS011;24025;48.138;11.428;2023-04-27T13:03:37;2.97;;;1.80;;
38224;SDS011;24025;48.138;11.428;2023-04-27T13:06:09;2.92;;;1.77;;
38224;SDS011;24025;48.138;11.428;2023-04-27T13:08:42;5.00;;;1.60;;
38224;SDS011;24025;48.138;11.428;2023-04-27T13:11:13;2.95;;;1.60;;
38224;SDS011;24025;48.138;11.428;2023-04-27T13:13:46;5.78;;;1.90;;
38224;SDS011;24025;48.138;11.428;2023-04-27T13:16:18;5.75;;;1.98;;
38224;SDS011;24025;48.138;11.428;2023-04-27T13:18:52;4.82;;;1.90;;
38224;SDS011;24025;48.138;11.428;2023-04-27T13:21:26;4.90;;;1.48;;
38224;SDS011;24025;48.138;11.428;2023-04-27T13:23:58;3.13;;;1.42;;
38224;SDS011;24025;48.138;11.428;2023-04-27T13:26:30;2.08;;;1.60;;
38224;SDS011;24025;48.138;11.428;2023-04-27T13:29:02;7.47;;;1.88;;
38224;SDS011;24025;48.138;11.428;2023-04-27T13:31:35;2.95;;;1.55;;
38224;SDS011;24025;48.138;11.428;2023-04-27T13:34:06;3.38;;;1.55;;
38224;SDS011;24025;48.138;11.428;2023-04-27T13:36:38;4.10;;;1.67;;
38224;SDS011;24025;48.138;11.428;2023-04-27T13:39:10;2.92;;;1.77;;
38224;SDS011;24025;48.138;11.428;2023-04-27T13:41:41;3.95;;;1.40;;
38224;SDS011;24025;48.138;11.428;2023-04-27T13:44:13;3.95;;;1.50;;
38224;SDS011;24025;48.138;11.428;2023-04-27T13:46:46;2.67;;;1.70;;
38224;SDS011;24025;48.138;11.428;2023-04-27T13:49:17;2.42;;;1.25;;
38224;SDS011;24025;48.138;11.428;2023-04-27T13:51:49;2.45;;;1.30;;
38224;SDS011;24025;48.138;11.428;2023-04-27T13:54:20;3.05;;;1.48;;
38224;SDS011;24025;48.138;11.428;2023-04-27T13:56:52;1.70;;;1.10;;
38224;SDS011;24025;48.138;11.428;2023-04-27T13:59:24;2.80;;;1.35;;
38224;SDS011;24025;48.138;11.428;2023-04-27T14:01:55;2.05;;;1.58;;
38224;SDS011;24025;48.138;11.428;2023-04-27T14:04:27;5.30;;;1.48;;
38224;SDS011;24025;48.138;11.428;2023-04-27T14:06:58;3.53;;;1.40;;
38224;SDS011;24025;48.138;11.428;2023-04-27T14:09:30;1.75;;;1.23;;
38224;SDS011;24025;48.138;11.428;2023-04-27T14:12:02;6.75;;;1.30;;
38224;SDS011;24025;48.138;11.428;2023-04-27T14:14:34;3.00;;;1.63;;
38224;SDS011;24025;48.138;11.428;2023-04-27T14:17:06;4.82;;;1.25;;
38224;SDS011;24025;48.138;11.428;2023-04-27T14:19:38;3.35;;;1.67;;
38224;SDS011;24025;48.138;11.428;2023-04-27T14:22:09;3.72;;;1.50;;
38224;SDS011;24025;48.138;11.428;2023-04-27T14:24:41;2.97;;;1.73;;
38224;SDS011;24025;48.138;11.428;2023-04-27T14:27:13;3.20;;;1.30;;
38224;SDS011;24025;48.138;11.428;2023-04-27T14:29:45;4.07;;;1.40;;
38224;SDS011;24025;48.138;11.428;2023-04-27T14:32:16;5.57;;;1.40;;
38224;SDS011;24025;48.138;11.428;2023-04-27T14:34:48;5.57;;;1.73;;
38224;SDS011;24025;48.138;11.428;2023-04-27T14:37:20;5.30;;;1.48;;
38224;SDS011;24025;48.138;11.428;2023-04-27T14:39:51;3.88;;;1.95;;
38224;SDS011;24025;48.138;11.428;2023-04-27T14:42:23;2.25;;;1.13;;
38224;SDS011;24025;48.138;11.428;2023-04-27T14:44:54;1.58;;;1.20;;
38224;SDS011;24025;48.138;11.428;2023-04-27T14:47:26;3.70;;;1.15;;
38224;SDS011;24025;48.138;11.428;2023-04-27T14:49:57;2.25;;;1.00;;
38224;SDS011;24025;48.138;11.428;2023-04-27T14:52:29;5.15;;;1.50;;
38224;SDS011;24025;48.138;11.428;2023-04-27T14:55:01;2.17;;;1.17;;
38224;SDS011;24025;48.138;11.428;2023-04-27T14:57:32;5.50;;;1.23;;
38224;SDS011;24025;48.138;11.428;2023-04-27T15:00:04;3.53;;;1.20;;
38224;SDS011;24025;48.138;11.428;2023-04-27T15:02:40;5.28;;;1.52;;
38224;SDS011;24025;48.138;11.428;2023-04-27T15:05:11;5.38;;;1.52;;
38224;SDS011;24025;48.138;11.428;2023-04-27T15:07:43;2.33;;;1.42;;
38224;SDS011;24025;48.138;11.428;2023-04-27T15:10:14;3.53;;;1.42;;
38224;SDS011;24025;48.138;11.428;2023-04-27T15:12:46;3.85;;;1.40;;
38224;SDS011;24025;48.138;11.428;2023-04-27T15:15:18;2.97;;;1.92;;
38224;SDS011;24025;48.138;11.428;2023-04-27T15:17:49;2.40;;;1.02;;
38224;SDS011;24025;48.138;11.428;2023-04-27T15:20:21;4.72;;;1.20;;
38224;SDS011;24025;48.138;11.428;2023-04-27T15:22:52;3.30;;;1.20;;
38224;SDS011;24025;48.138;11.428;2023-04-27T15:25:24;1.23;;;0.80;;
38224;SDS011;24025;48.138;11.428;2023-04-27T15:27:55;3.13;;;2.05;;